sensor_id;sensor_type;location;lat;lon;timestamp;P1;durP1;ratioP1;P2;durP2;ratioP2
20241;SDS011;10279;46.388;8.116;2023-06-04T00:00:29;4.22;;;3.47;;
20241;SDS011;10279;46.388;8.116;2023-06-04T00:02:56;4.32;;;2.90;;
20241;SDS011;10279;46.388;8.116;2023-06-04T00:05:24;6.55;;;3.22;;
20241;SDS011;10279;46.388;8.116;2023-06-04T00:07:52;4.78;;;3.70;;
20241;SDS011;10279;46.388;8.116;2023-06-04T00:10:19;5.63;;;3.17;;
20241;SDS011;10279;46.388;8.116;2023-06-04T00:12:47;5.18;;;3.40;;
20241;SDS011;10279;46.388;8.116;2023-06-04T00:15:15;4.75;;;3.10;;
20241;SDS011;10279;46.388;8.116;2023-06-04T00:17:43;3.58;;;3.22;;
20241;SDS011;10279;46.388;8.116;2023-06-04T00:20:10;3.25;;;2.95;;
20241;SDS011;10279;46.388;8.116;2023-06-04T00:22:38;4.65;;;2.75;;
20241;SDS011;10279;46.388;8.116;2023-06-04T00:25:11;3.40;;;3.10;;
20241;SDS011;10279;46.388;8.116;2023-06-04T00:27:38;3.85;;;2.72;;
20241;SDS011;10279;46.388;8.116;2023-06-04T00:30:06;4.70;;;2.90;;
20241;SDS011;10279;46.388;8.116;2023-06-04T00:32:33;5.60;;;3.50;;
20241;SDS011;10279;46.388;8.116;2023-06-04T00:35:01;3.80;;;3.28;;
20241;SDS011;10279;46.388;8.116;2023-06-04T00:37:29;5.95;;;3.10;;
20241;SDS011;10279;46.388;8.116;2023-06-04T00:39:56;4.22;;;3.30;;
20241;SDS011;10279;46.388;8.116;2023-06-04T00:42:24;3.25;;;2.95;;
20241;SDS011;10279;46.388;8.116;2023-06-04T00:44:51;4.32;;;3.15;;
20241;SDS011;10279;46.388;8.116;2023-06-04T00:47:20;5.00;;;3.40;;
20241;SDS011;10279;46.388;8.116;2023-06-04T00:49:48;4.22;;;3.03;;
20241;SDS011;10279;46.388;8.116;2023-06-04T00:52:15;3.50;;;2.72;;
20241;SDS011;10279;46.388;8.116;2023-06-04T00:54:43;4.40;;;3.10;;
20241;SDS011;10279;46.388;8.116;2023-06-04T00:57:11;3.42;;;2.90;;
20241;SDS011;10279;46.388;8.116;2023-06-04T00:59:38;3.22;;;2.92;;
20241;SDS011;10279;46.388;8.116;2023-06-04T01:02:15;3.65;;;3.22;;
20241;SDS011;10279;46.388;8.116;2023-06-04T01:04:49;4.43;;;3.00;;
20241;SDS011;10279;46.388;8.116;2023-06-04T01:07:17;3.35;;;3.03;;
20241;SDS011;10279;46.388;8.116;2023-06-04T01:09:45;4.03;;;2.95;;
20241;SDS011;10279;46.388;8.116;2023-06-04T01:12:13;3.75;;;3.25;;
20241;SDS011;10279;46.388;8.116;2023-06-04T01:14:41;3.10;;;2.80;;
20241;SDS011;10279;46.388;8.116;2023-06-04T01:17:17;4.30;;;3.03;;
20241;SDS011;10279;46.388;8.116;2023-06-04T01:25:34;3.67;;;3.20;;
20241;SDS011;10279;46.388;8.116;2023-06-04T01:28:06;3.03;;;2.72;;
20241;SDS011;10279;46.388;8.116;2023-06-04T01:30:34;4.22;;;2.95;;
20241;SDS011;10279;46.388;8.116;2023-06-04T01:33:10;4.45;;;3.38;;
20241;SDS011;10279;46.388;8.116;2023-06-04T01:35:37;5.00;;;3.10;;
20241;SDS011;10279;46.388;8.116;2023-06-04T01:38:05;4.45;;;3.80;;
20241;SDS011;10279;46.388;8.116;2023-06-04T01:40:32;3.53;;;3.20;;
20241;SDS011;10279;46.388;8.116;2023-06-04T01:43:00;5.07;;;3.08;;
20241;SDS011;10279;46.388;8.116;2023-06-04T01:45:28;3.88;;;2.90;;
20241;SDS011;10279;46.388;8.116;2023-06-04T01:47:55;3.22;;;2.92;;
20241;SDS011;10279;46.388;8.116;2023-06-04T01:50:23;5.53;;;3.10;;
20241;SDS011;10279;46.388;8.116;2023-06-04T01:52:51;3.63;;;3.28;;
20241;SDS011;10279;46.388;8.116;2023-06-04T01:55:18;3.40;;;3.08;;
20241;SDS011;10279;46.388;8.116;2023-06-04T01:57:46;3.50;;;2.83;;
20241;SDS011;10279;46.388;8.116;2023-06-04T02:00:14;4.60;;;2.83;;
20241;SDS011;10279;46.388;8.116;2023-06-04T02:02:42;3.25;;;2.83;;
20241;SDS011;10279;46.388;8.116;2023-06-04T02:05:10;4.60;;;3.28;;
20241;SDS011;10279;46.388;8.116;2023-06-04T02:07:39;8.45;;;2.63;;
20241;SDS011;10279;46.388;8.116;2023-06-04T02:10:10;6.28;;;3.50;;
20241;SDS011;10279;46.388;8.116;2023-06-04T02:12:51;4.18;;;3.25;;
20241;SDS011;10279;46.388;8.116;2023-06-04T02:15:19;3.50;;;3.17;;
20241;SDS011;10279;46.388;8.116;2023-06-04T02:17:46;4.43;;;3.05;;
20241;SDS011;10279;46.388;8.116;2023-06-04T02:20:14;3.92;;;3.00;;
20241;SDS011;10279;46.388;8.116;2023-06-04T02:22:42;4.30;;;2.90;;
20241;SDS011;10279;46.388;8.116;2023-06-04T02:25:09;3.58;;;3.00;;
20241;SDS011;10279;46.388;8.116;2023-06-04T02:27:37;3.63;;;2.95;;
20241;SDS011;10279;46.388;8.116;2023-06-04T02:30:04;4.07;;;3.22;;
20241;SDS011;10279;46.388;8.116;2023-06-04T02:32:32;3.03;;;2.72;;
20241;SDS011;10279;46.388;8.116;2023-06-04T02:35:03;5.50;;;3.58;;
20241;SDS011;10279;46.388;8.116;2023-06-04T02:37:30;6.75;;;3.92;;
20241;SDS011;10279;46.388;8.116;2023-06-04T02:39:58;3.50;;;2.90;;
20241;SDS011;10279;46.388;8.116;2023-06-04T02:42:25;4.22;;;2.67;;
20241;SDS011;10279;46.388;8.116;2023-06-04T02:44:53;3.38;;;3.08;;
20241;SDS011;10279;46.388;8.116;2023-06-04T02:47:20;3.83;;;3.40;;
20241;SDS011;10279;46.388;8.116;2023-06-04T02:49:48;3.60;;;3.30;;
20241;SDS011;10279;46.388;8.116;2023-06-04T02:52:15;4.75;;;3.40;;
20241;SDS011;10279;46.388;8.116;2023-06-04T02:54:43;3.97;;;3.25;;
20241;SDS011;10279;46.388;8.116;2023-06-04T02:57:10;4.35;;;3.13;;
20241;SDS011;10279;46.388;8.116;2023-06-04T02:59:38;4.20;;;3.30;;
20241;SDS011;10279;46.388;8.116;2023-06-04T03:02:05;3.25;;;2.92;;
20241;SDS011;10279;46.388;8.116;2023-06-04T03:04:33;3.75;;;3.35;;
20241;SDS011;10279;46.388;8.116;2023-06-04T03:07:01;4.68;;;3.13;;
20241;SDS011;10279;46.388;8.116;2023-06-04T03:09:32;3.30;;;3.00;;
20241;SDS011;10279;46.388;8.116;2023-06-04T03:12:00;3.95;;;3.53;;
20241;SDS011;10279;46.388;8.116;2023-06-04T03:14:31;4.57;;;3.60;;
20241;SDS011;10279;46.388;8.116;2023-06-04T03:16:59;3.20;;;2.80;;
20241;SDS011;10279;46.388;8.116;2023-06-04T03:19:35;3.40;;;3.10;;
20241;SDS011;10279;46.388;8.116;2023-06-04T03:22:03;2.95;;;2.65;;
20241;SDS011;10279;46.388;8.116;2023-06-04T03:24:34;3.75;;;3.13;;
20241;SDS011;10279;46.388;8.116;2023-06-04T03:27:03;6.05;;;3.15;;
20241;SDS011;10279;46.388;8.116;2023-06-04T03:29:31;4.87;;;2.70;;
20241;SDS011;10279;46.388;8.116;2023-06-04T03:31:59;6.33;;;3.50;;
20241;SDS011;10279;46.388;8.116;2023-06-04T03:34:27;6.17;;;3.53;;
20241;SDS011;10279;46.388;8.116;2023-06-04T03:37:00;3.88;;;3.25;;
20241;SDS011;10279;46.388;8.116;2023-06-04T03:39:29;4.53;;;3.50;;
20241;SDS011;10279;46.388;8.116;2023-06-04T03:41:57;4.88;;;3.83;;
20241;SDS011;10279;46.388;8.116;2023-06-04T03:44:24;3.33;;;2.92;;
20241;SDS011;10279;46.388;8.116;2023-06-04T03:46:52;3.55;;;2.80;;
20241;SDS011;10279;46.388;8.116;2023-06-04T03:49:19;4.40;;;3.03;;
20241;SDS011;10279;46.388;8.116;2023-06-04T03:51:48;3.15;;;2.85;;
20241;SDS011;10279;46.388;8.116;2023-06-04T03:54:16;4.95;;;3.55;;
20241;SDS011;10279;46.388;8.116;2023-06-04T03:56:44;3.63;;;3.20;;
20241;SDS011;10279;46.388;8.116;2023-06-04T03:59:12;4.20;;;3.80;;
20241;SDS011;10279;46.388;8.116;2023-06-04T04:01:39;4.35;;;3.40;;
20241;SDS011;10279;46.388;8.116;2023-06-04T04:04:07;4.25;;;3.30;;
20241;SDS011;10279;46.388;8.116;2023-06-04T04:06:34;4.13;;;2.92;;
20241;SDS011;10279;46.388;8.116;2023-06-04T04:09:03;5.10;;;3.33;;
20241;SDS011;10279;46.388;8.116;2023-06-04T04:11:33;3.85;;;3.30;;
20241;SDS011;10279;46.388;8.116;2023-06-04T04:14:01;4.40;;;3.27;;
20241;SDS011;10279;46.388;8.116;2023-06-04T04:16:28;4.77;;;3.07;;
20241;SDS011;10279;46.388;8.116;2023-06-04T04:18:56;3.70;;;2.85;;
20241;SDS011;10279;46.388;8.116;2023-06-04T04:21:23;3.57;;;3.17;;
20241;SDS011;10279;46.388;8.116;2023-06-04T04:23:51;3.10;;;2.80;;
20241;SDS011;10279;46.388;8.116;2023-06-04T04:26:19;2.97;;;2.67;;
20241;SDS011;10279;46.388;8.116;2023-06-04T04:28:46;4.60;;;3.03;;
20241;SDS011;10279;46.388;8.116;2023-06-04T04:31:14;5.00;;;3.10;;
20241;SDS011;10279;46.388;8.116;2023-06-04T04:33:42;4.15;;;3.17;;
20241;SDS011;10279;46.388;8.116;2023-06-04T04:36:09;3.40;;;2.72;;
20241;SDS011;10279;46.388;8.116;2023-06-04T04:38:40;4.32;;;3.03;;
20241;SDS011;10279;46.388;8.116;2023-06-04T04:41:08;3.40;;;3.10;;
20241;SDS011;10279;46.388;8.116;2023-06-04T04:43:36;2.50;;;2.30;;
20241;SDS011;10279;46.388;8.116;2023-06-04T04:46:06;4.07;;;2.85;;
20241;SDS011;10279;46.388;8.116;2023-06-04T04:48:34;4.95;;;3.28;;
20241;SDS011;10279;46.388;8.116;2023-06-04T04:51:02;3.92;;;3.15;;
20241;SDS011;10279;46.388;8.116;2023-06-04T04:53:29;3.92;;;3.22;;
20241;SDS011;10279;46.388;8.116;2023-06-04T04:55:57;5.05;;;3.15;;
20241;SDS011;10279;46.388;8.116;2023-06-04T04:58:25;4.03;;;2.95;;
20241;SDS011;10279;46.388;8.116;2023-06-04T05:00:52;5.05;;;2.90;;
20241;SDS011;10279;46.388;8.116;2023-06-04T05:03:19;4.00;;;3.47;;
20241;SDS011;10279;46.388;8.116;2023-06-04T05:05:51;3.08;;;2.70;;
20241;SDS011;10279;46.388;8.116;2023-06-04T05:08:18;5.82;;;3.45;;
20241;SDS011;10279;46.388;8.116;2023-06-04T05:10:45;4.63;;;3.43;;
20241;SDS011;10279;46.388;8.116;2023-06-04T05:13:13;3.72;;;3.22;;
20241;SDS011;10279;46.388;8.116;2023-06-04T05:15:41;3.40;;;3.10;;
20241;SDS011;10279;46.388;8.116;2023-06-04T05:18:09;3.20;;;2.90;;
20241;SDS011;10279;46.388;8.116;2023-06-04T05:20:36;5.03;;;2.92;;
20241;SDS011;10279;46.388;8.116;2023-06-04T05:23:04;3.30;;;3.00;;
20241;SDS011;10279;46.388;8.116;2023-06-04T05:25:32;3.67;;;2.60;;
20241;SDS011;10279;46.388;8.116;2023-06-04T05:27:59;3.40;;;3.10;;
20241;SDS011;10279;46.388;8.116;2023-06-04T05:30:27;5.82;;;3.03;;
20241;SDS011;10279;46.388;8.116;2023-06-04T05:32:54;3.47;;;3.17;;
20241;SDS011;10279;46.388;8.116;2023-06-04T05:35:22;2.78;;;2.55;;
20241;SDS011;10279;46.388;8.116;2023-06-04T05:37:52;3.50;;;2.90;;
20241;SDS011;10279;46.388;8.116;2023-06-04T05:40:20;3.78;;;3.38;;
20241;SDS011;10279;46.388;8.116;2023-06-04T05:42:48;4.90;;;3.33;;
20241;SDS011;10279;46.388;8.116;2023-06-04T05:45:16;4.07;;;3.00;;
20241;SDS011;10279;46.388;8.116;2023-06-04T05:47:43;6.03;;;3.35;;
20241;SDS011;10279;46.388;8.116;2023-06-04T05:50:11;4.45;;;3.33;;
20241;SDS011;10279;46.388;8.116;2023-06-04T05:52:39;4.05;;;3.47;;
20241;SDS011;10279;46.388;8.116;2023-06-04T05:55:06;3.83;;;3.25;;
20241;SDS011;10279;46.388;8.116;2023-06-04T05:57:35;4.07;;;3.17;;
20241;SDS011;10279;46.388;8.116;2023-06-04T06:00:02;3.40;;;3.10;;
20241;SDS011;10279;46.388;8.116;2023-06-04T06:02:36;3.40;;;3.10;;
20241;SDS011;10279;46.388;8.116;2023-06-04T06:05:05;3.92;;;3.45;;
20241;SDS011;10279;46.388;8.116;2023-06-04T06:07:34;4.10;;;2.97;;
20241;SDS011;10279;46.388;8.116;2023-06-04T06:10:02;3.58;;;3.00;;
20241;SDS011;10279;46.388;8.116;2023-06-04T06:12:30;3.15;;;2.75;;
20241;SDS011;10279;46.388;8.116;2023-06-04T06:14:58;4.47;;;3.30;;
20241;SDS011;10279;46.388;8.116;2023-06-04T06:17:25;5.35;;;3.55;;
20241;SDS011;10279;46.388;8.116;2023-06-04T06:19:53;3.80;;;3.05;;
20241;SDS011;10279;46.388;8.116;2023-06-04T06:22:21;5.32;;;3.33;;
20241;SDS011;10279;46.388;8.116;2023-06-04T06:24:48;3.97;;;3.00;;
20241;SDS011;10279;46.388;8.116;2023-06-04T06:27:16;4.65;;;3.08;;
20241;SDS011;10279;46.388;8.116;2023-06-04T06:29:44;3.95;;;3.20;;
20241;SDS011;10279;46.388;8.116;2023-06-04T06:32:11;3.53;;;3.20;;
20241;SDS011;10279;46.388;8.116;2023-06-04T06:34:38;3.42;;;3.13;;
20241;SDS011;10279;46.388;8.116;2023-06-04T06:37:06;4.75;;;3.17;;
20241;SDS011;10279;46.388;8.116;2023-06-04T06:39:34;4.43;;;2.75;;
20241;SDS011;10279;46.388;8.116;2023-06-04T06:42:01;3.30;;;3.00;;
20241;SDS011;10279;46.388;8.116;2023-06-04T06:44:29;3.60;;;3.30;;
20241;SDS011;10279;46.388;8.116;2023-06-04T06:46:56;3.53;;;3.00;;
20241;SDS011;10279;46.388;8.116;2023-06-04T06:49:24;3.63;;;3.13;;
20241;SDS011;10279;46.388;8.116;2023-06-04T06:51:52;6.03;;;3.65;;
20241;SDS011;10279;46.388;8.116;2023-06-04T06:54:19;3.33;;;3.03;;
20241;SDS011;10279;46.388;8.116;2023-06-04T06:56:48;3.35;;;3.00;;
20241;SDS011;10279;46.388;8.116;2023-06-04T06:59:16;3.25;;;2.95;;
20241;SDS011;10279;46.388;8.116;2023-06-04T07:01:44;2.92;;;2.70;;
20241;SDS011;10279;46.388;8.116;2023-06-04T07:04:12;3.28;;;3.03;;
20241;SDS011;10279;46.388;8.116;2023-06-04T07:06:39;4.05;;;2.75;;
20241;SDS011;10279;46.388;8.116;2023-06-04T07:09:07;2.90;;;2.63;;
20241;SDS011;10279;46.388;8.116;2023-06-04T07:11:35;3.25;;;2.45;;
20241;SDS011;10279;46.388;8.116;2023-06-04T07:14:03;4.05;;;3.00;;
20241;SDS011;10279;46.388;8.116;2023-06-04T07:16:30;3.28;;;2.70;;
20241;SDS011;10279;46.388;8.116;2023-06-04T07:18:58;3.78;;;2.65;;
20241;SDS011;10279;46.388;8.116;2023-06-04T07:21:25;3.10;;;2.78;;
20241;SDS011;10279;46.388;8.116;2023-06-04T07:23:53;2.90;;;2.70;;
20241;SDS011;10279;46.388;8.116;2023-06-04T07:26:20;3.08;;;2.78;;
20241;SDS011;10279;46.388;8.116;2023-06-04T07:28:48;4.88;;;2.63;;
20241;SDS011;10279;46.388;8.116;2023-06-04T07:31:16;3.53;;;2.75;;
20241;SDS011;10279;46.388;8.116;2023-06-04T07:33:46;4.18;;;3.08;;
20241;SDS011;10279;46.388;8.116;2023-06-04T07:36:14;3.13;;;2.83;;
20241;SDS011;10279;46.388;8.116;2023-06-04T07:38:42;2.92;;;2.30;;
20241;SDS011;10279;46.388;8.116;2023-06-04T07:41:10;3.03;;;2.60;;
20241;SDS011;10279;46.388;8.116;2023-06-04T07:43:37;2.80;;;2.60;;
20241;SDS011;10279;46.388;8.116;2023-06-04T07:46:05;4.90;;;2.67;;
20241;SDS011;10279;46.388;8.116;2023-06-04T07:48:33;4.43;;;2.78;;
20241;SDS011;10279;46.388;8.116;2023-06-04T07:51:01;6.07;;;2.85;;
20241;SDS011;10279;46.388;8.116;2023-06-04T07:53:31;3.55;;;2.70;;
20241;SDS011;10279;46.388;8.116;2023-06-04T07:55:58;3.03;;;2.80;;
20241;SDS011;10279;46.388;8.116;2023-06-04T07:58:26;2.83;;;2.60;;
20241;SDS011;10279;46.388;8.116;2023-06-04T08:00:53;3.40;;;2.85;;
20241;SDS011;10279;46.388;8.116;2023-06-04T08:03:21;2.88;;;2.60;;
20241;SDS011;10279;46.388;8.116;2023-06-04T08:05:50;3.33;;;2.58;;
20241;SDS011;10279;46.388;8.116;2023-06-04T08:08:19;2.70;;;2.50;;
20241;SDS011;10279;46.388;8.116;2023-06-04T08:10:47;3.65;;;2.67;;
20241;SDS011;10279;46.388;8.116;2023-06-04T08:13:14;2.38;;;2.17;;
20241;SDS011;10279;46.388;8.116;2023-06-04T08:15:43;2.20;;;2.00;;
20241;SDS011;10279;46.388;8.116;2023-06-04T08:18:11;2.30;;;2.10;;
20241;SDS011;10279;46.388;8.116;2023-06-04T08:20:38;3.58;;;2.40;;
20241;SDS011;10279;46.388;8.116;2023-06-04T08:23:06;2.47;;;2.28;;
20241;SDS011;10279;46.388;8.116;2023-06-04T08:25:33;3.25;;;2.70;;
20241;SDS011;10279;46.388;8.116;2023-06-04T08:28:01;4.18;;;2.35;;
20241;SDS011;10279;46.388;8.116;2023-06-04T08:30:29;2.65;;;2.45;;
20241;SDS011;10279;46.388;8.116;2023-06-04T08:32:56;4.70;;;2.38;;
20241;SDS011;10279;46.388;8.116;2023-06-04T08:35:24;2.95;;;2.47;;
20241;SDS011;10279;46.388;8.116;2023-06-04T08:37:52;2.72;;;2.13;;
20241;SDS011;10279;46.388;8.116;2023-06-04T08:40:22;3.60;;;2.40;;
20241;SDS011;10279;46.388;8.116;2023-06-04T08:42:49;2.30;;;2.10;;
20241;SDS011;10279;46.388;8.116;2023-06-04T08:45:17;3.45;;;2.70;;
20241;SDS011;10279;46.388;8.116;2023-06-04T08:47:50;2.72;;;2.50;;
20241;SDS011;10279;46.388;8.116;2023-06-04T08:50:19;2.88;;;2.58;;
20241;SDS011;10279;46.388;8.116;2023-06-04T08:52:49;2.35;;;2.15;;
20241;SDS011;10279;46.388;8.116;2023-06-04T08:55:17;3.58;;;2.55;;
20241;SDS011;10279;46.388;8.116;2023-06-04T08:57:44;2.45;;;2.10;;
20241;SDS011;10279;46.388;8.116;2023-06-04T09:00:12;3.65;;;2.00;;
20241;SDS011;10279;46.388;8.116;2023-06-04T09:02:40;2.85;;;2.20;;
20241;SDS011;10279;46.388;8.116;2023-06-04T09:05:08;3.35;;;2.35;;
20241;SDS011;10279;46.388;8.116;2023-06-04T09:07:38;3.45;;;2.83;;
20241;SDS011;10279;46.388;8.116;2023-06-04T09:10:07;3.78;;;3.15;;
20241;SDS011;10279;46.388;8.116;2023-06-04T09:12:40;4.30;;;2.85;;
20241;SDS011;10279;46.388;8.116;2023-06-04T09:15:10;2.92;;;2.55;;
20241;SDS011;10279;46.388;8.116;2023-06-04T09:17:37;3.78;;;3.05;;
20241;SDS011;10279;46.388;8.116;2023-06-04T09:20:05;3.33;;;3.03;;
20241;SDS011;10279;46.388;8.116;2023-06-04T09:22:37;4.10;;;2.60;;
20241;SDS011;10279;46.388;8.116;2023-06-04T09:25:05;4.03;;;3.10;;
20241;SDS011;10279;46.388;8.116;2023-06-04T09:27:39;3.38;;;2.90;;
20241;SDS011;10279;46.388;8.116;2023-06-04T09:30:07;3.30;;;2.80;;
20241;SDS011;10279;46.388;8.116;2023-06-04T09:32:36;3.83;;;2.90;;
20241;SDS011;10279;46.388;8.116;2023-06-04T09:35:18;2.92;;;2.63;;
20241;SDS011;10279;46.388;8.116;2023-06-04T09:37:53;5.13;;;3.25;;
20241;SDS011;10279;46.388;8.116;2023-06-04T09:40:24;6.18;;;3.28;;
20241;SDS011;10279;46.388;8.116;2023-06-04T09:42:51;3.33;;;3.03;;
20241;SDS011;10279;46.388;8.116;2023-06-04T09:47:56;4.57;;;3.03;;
20241;SDS011;10279;46.388;8.116;2023-06-04T09:50:27;4.35;;;3.20;;
20241;SDS011;10279;46.388;8.116;2023-06-04T09:52:55;4.22;;;3.30;;
20241;SDS011;10279;46.388;8.116;2023-06-04T09:55:24;3.40;;;3.10;;
20241;SDS011;10279;46.388;8.116;2023-06-04T09:57:52;3.30;;;2.88;;
20241;SDS011;10279;46.388;8.116;2023-06-04T10:00:23;3.92;;;3.15;;
20241;SDS011;10279;46.388;8.116;2023-06-04T10:02:57;5.13;;;3.20;;
20241;SDS011;10279;46.388;8.116;2023-06-04T10:05:26;3.92;;;2.97;;
20241;SDS011;10279;46.388;8.116;2023-06-04T10:07:54;4.50;;;3.20;;
20241;SDS011;10279;46.388;8.116;2023-06-04T10:10:25;3.92;;;2.90;;
20241;SDS011;10279;46.388;8.116;2023-06-04T10:13:05;3.75;;;3.30;;
20241;SDS011;10279;46.388;8.116;2023-06-04T10:15:35;6.25;;;3.20;;
20241;SDS011;10279;46.388;8.116;2023-06-04T10:18:02;3.35;;;3.05;;
20241;SDS011;10279;46.388;8.116;2023-06-04T10:20:30;3.95;;;3.28;;
20241;SDS011;10279;46.388;8.116;2023-06-04T10:22:58;4.05;;;3.55;;
20241;SDS011;10279;46.388;8.116;2023-06-04T10:25:26;4.07;;;3.30;;
20241;SDS011;10279;46.388;8.116;2023-06-04T10:27:53;3.53;;;3.22;;
20241;SDS011;10279;46.388;8.116;2023-06-04T10:30:21;3.45;;;3.15;;
20241;SDS011;10279;46.388;8.116;2023-06-04T10:32:49;5.07;;;3.45;;
20241;SDS011;10279;46.388;8.116;2023-06-04T10:35:17;3.97;;;3.53;;
20241;SDS011;10279;46.388;8.116;2023-06-04T10:37:44;4.03;;;3.28;;
20241;SDS011;10279;46.388;8.116;2023-06-04T10:40:14;3.00;;;2.70;;
20241;SDS011;10279;46.388;8.116;2023-06-04T10:42:42;3.28;;;2.97;;
20241;SDS011;10279;46.388;8.116;2023-06-04T10:45:09;3.15;;;2.85;;
20241;SDS011;10279;46.388;8.116;2023-06-04T10:47:38;3.20;;;2.90;;
20241;SDS011;10279;46.388;8.116;2023-06-04T10:50:11;4.88;;;3.15;;
20241;SDS011;10279;46.388;8.116;2023-06-04T10:52:52;3.85;;;2.97;;
20241;SDS011;10279;46.388;8.116;2023-06-04T10:55:20;3.17;;;2.88;;
20241;SDS011;10279;46.388;8.116;2023-06-04T10:57:51;4.32;;;3.38;;
20241;SDS011;10279;46.388;8.116;2023-06-04T11:00:19;6.40;;;2.88;;
20241;SDS011;10279;46.388;8.116;2023-06-04T11:02:54;5.53;;;3.50;;
20241;SDS011;10279;46.388;8.116;2023-06-04T11:05:22;3.80;;;3.13;;
20241;SDS011;10279;46.388;8.116;2023-06-04T11:07:49;3.67;;;2.70;;
20241;SDS011;10279;46.388;8.116;2023-06-04T11:10:18;4.70;;;3.20;;
20241;SDS011;10279;46.388;8.116;2023-06-04T11:12:58;5.45;;;3.20;;
20241;SDS011;10279;46.388;8.116;2023-06-04T11:15:26;4.20;;;3.15;;
20241;SDS011;10279;46.388;8.116;2023-06-04T11:17:54;3.22;;;2.92;;
20241;SDS011;10279;46.388;8.116;2023-06-04T11:20:25;3.33;;;3.00;;
20241;SDS011;10279;46.388;8.116;2023-06-04T11:25:20;3.92;;;3.38;;
20241;SDS011;10279;46.388;8.116;2023-06-04T11:27:49;3.58;;;3.28;;
20241;SDS011;10279;46.388;8.116;2023-06-04T11:30:17;4.07;;;3.10;;
20241;SDS011;10279;46.388;8.116;2023-06-04T11:32:44;3.38;;;2.63;;
20241;SDS011;10279;46.388;8.116;2023-06-04T11:35:12;3.70;;;3.15;;
20241;SDS011;10279;46.388;8.116;2023-06-04T11:37:39;3.75;;;3.15;;
20241;SDS011;10279;46.388;8.116;2023-06-04T11:40:17;4.25;;;3.45;;
20241;SDS011;10279;46.388;8.116;2023-06-04T11:42:48;7.28;;;3.40;;
20241;SDS011;10279;46.388;8.116;2023-06-04T11:45:16;3.42;;;3.13;;
20241;SDS011;10279;46.388;8.116;2023-06-04T11:47:45;3.33;;;2.97;;
20241;SDS011;10279;46.388;8.116;2023-06-04T11:50:12;3.47;;;2.70;;
20241;SDS011;10279;46.388;8.116;2023-06-04T11:52:40;4.20;;;3.38;;
20241;SDS011;10279;46.388;8.116;2023-06-04T11:55:08;4.18;;;2.90;;
20241;SDS011;10279;46.388;8.116;2023-06-04T11:57:39;3.80;;;3.40;;
20241;SDS011;10279;46.388;8.116;2023-06-04T12:00:07;2.92;;;2.55;;
20241;SDS011;10279;46.388;8.116;2023-06-04T12:02:59;4.60;;;3.40;;
20241;SDS011;10279;46.388;8.116;2023-06-04T12:05:29;4.45;;;2.78;;
20241;SDS011;10279;46.388;8.116;2023-06-04T12:08:10;3.10;;;2.45;;
20241;SDS011;10279;46.388;8.116;2023-06-04T12:10:38;3.45;;;3.03;;
20241;SDS011;10279;46.388;8.116;2023-06-04T12:13:07;3.58;;;2.95;;
20241;SDS011;10279;46.388;8.116;2023-06-04T12:15:34;2.92;;;2.63;;
20241;SDS011;10279;46.388;8.116;2023-06-04T12:18:02;11.27;;;3.05;;
20241;SDS011;10279;46.388;8.116;2023-06-04T12:20:32;2.63;;;2.42;;
20241;SDS011;10279;46.388;8.116;2023-06-04T12:23:01;3.45;;;2.97;;
20241;SDS011;10279;46.388;8.116;2023-06-04T12:25:29;5.25;;;3.28;;
20241;SDS011;10279;46.388;8.116;2023-06-04T12:27:57;3.10;;;2.67;;
20241;SDS011;10279;46.388;8.116;2023-06-04T12:30:38;4.05;;;2.60;;
20241;SDS011;10279;46.388;8.116;2023-06-04T12:33:06;2.50;;;2.30;;
20241;SDS011;10279;46.388;8.116;2023-06-04T12:35:34;2.90;;;2.60;;
20241;SDS011;10279;46.388;8.116;2023-06-04T12:38:05;5.07;;;2.78;;
20241;SDS011;10279;46.388;8.116;2023-06-04T12:40:35;4.43;;;2.85;;
20241;SDS011;10279;46.388;8.116;2023-06-04T12:43:04;3.30;;;2.88;;
20241;SDS011;10279;46.388;8.116;2023-06-04T12:45:33;3.30;;;2.63;;
20241;SDS011;10279;46.388;8.116;2023-06-04T12:48:00;3.25;;;2.90;;
20241;SDS011;10279;46.388;8.116;2023-06-04T12:50:28;3.70;;;2.72;;
20241;SDS011;10279;46.388;8.116;2023-06-04T12:52:56;3.83;;;2.80;;
20241;SDS011;10279;46.388;8.116;2023-06-04T12:55:23;3.95;;;2.88;;
20241;SDS011;10279;46.388;8.116;2023-06-04T12:57:53;3.15;;;2.50;;
20241;SDS011;10279;46.388;8.116;2023-06-04T13:00:21;2.60;;;2.40;;
20241;SDS011;10279;46.388;8.116;2023-06-04T13:02:48;3.22;;;2.92;;
20241;SDS011;10279;46.388;8.116;2023-06-04T13:05:16;3.25;;;2.60;;
20241;SDS011;10279;46.388;8.116;2023-06-04T13:07:43;3.10;;;2.47;;
20241;SDS011;10279;46.388;8.116;2023-06-04T13:10:11;2.85;;;2.10;;
20241;SDS011;10279;46.388;8.116;2023-06-04T13:12:38;4.97;;;2.35;;
20241;SDS011;10279;46.388;8.116;2023-06-04T13:15:06;2.70;;;2.35;;
20241;SDS011;10279;46.388;8.116;2023-06-04T13:17:33;2.92;;;2.63;;
20241;SDS011;10279;46.388;8.116;2023-06-04T13:20:01;2.83;;;2.30;;
20241;SDS011;10279;46.388;8.116;2023-06-04T13:22:30;4.13;;;2.50;;
20241;SDS011;10279;46.388;8.116;2023-06-04T13:24:57;2.78;;;2.47;;
20241;SDS011;10279;46.388;8.116;2023-06-04T13:27:25;2.75;;;2.50;;
20241;SDS011;10279;46.388;8.116;2023-06-04T13:29:52;2.92;;;2.17;;
20241;SDS011;10279;46.388;8.116;2023-06-04T13:32:20;2.40;;;2.20;;
20241;SDS011;10279;46.388;8.116;2023-06-04T13:34:47;3.30;;;2.20;;
20241;SDS011;10279;46.388;8.116;2023-06-04T13:37:15;3.08;;;2.45;;
20241;SDS011;10279;46.388;8.116;2023-06-04T13:39:42;2.65;;;2.40;;
20241;SDS011;10279;46.388;8.116;2023-06-04T13:42:10;2.50;;;2.30;;
20241;SDS011;10279;46.388;8.116;2023-06-04T13:44:37;2.80;;;2.20;;
20241;SDS011;10279;46.388;8.116;2023-06-04T13:47:05;4.18;;;2.40;;
20241;SDS011;10279;46.388;8.116;2023-06-04T13:49:33;3.35;;;2.13;;
20241;SDS011;10279;46.388;8.116;2023-06-04T13:52:01;2.85;;;2.60;;
20241;SDS011;10279;46.388;8.116;2023-06-04T13:54:28;3.67;;;2.45;;
20241;SDS011;10279;46.388;8.116;2023-06-04T13:56:56;3.05;;;2.40;;
20241;SDS011;10279;46.388;8.116;2023-06-04T13:59:23;2.60;;;2.22;;
20241;SDS011;10279;46.388;8.116;2023-06-04T14:01:51;2.67;;;2.22;;
20241;SDS011;10279;46.388;8.116;2023-06-04T14:04:19;3.85;;;2.83;;
20241;SDS011;10279;46.388;8.116;2023-06-04T14:06:46;3.47;;;2.55;;
20241;SDS011;10279;46.388;8.116;2023-06-04T14:09:14;2.70;;;2.50;;
20241;SDS011;10279;46.388;8.116;2023-06-04T14:11:42;2.97;;;2.15;;
20241;SDS011;10279;46.388;8.116;2023-06-04T14:14:12;2.38;;;2.17;;
20241;SDS011;10279;46.388;8.116;2023-06-04T14:16:39;2.72;;;2.17;;
20241;SDS011;10279;46.388;8.116;2023-06-04T14:19:07;3.35;;;2.78;;
20241;SDS011;10279;46.388;8.116;2023-06-04T14:21:34;2.60;;;2.40;;
20241;SDS011;10279;46.388;8.116;2023-06-04T14:24:02;5.07;;;2.30;;
20241;SDS011;10279;46.388;8.116;2023-06-04T14:26:30;2.97;;;2.35;;
20241;SDS011;10279;46.388;8.116;2023-06-04T14:28:57;2.72;;;2.40;;
20241;SDS011;10279;46.388;8.116;2023-06-04T14:31:25;2.28;;;2.05;;
20241;SDS011;10279;46.388;8.116;2023-06-04T14:33:52;2.40;;;2.13;;
20241;SDS011;10279;46.388;8.116;2023-06-04T14:36:20;2.33;;;1.95;;
20241;SDS011;10279;46.388;8.116;2023-06-04T14:38:48;2.35;;;2.15;;
20241;SDS011;10279;46.388;8.116;2023-06-04T14:41:16;2.45;;;2.22;;
20241;SDS011;10279;46.388;8.116;2023-06-04T14:43:43;4.28;;;2.40;;
20241;SDS011;10279;46.388;8.116;2023-06-04T14:46:11;2.50;;;2.25;;
20241;SDS011;10279;46.388;8.116;2023-06-04T14:48:38;3.67;;;2.42;;
20241;SDS011;10279;46.388;8.116;2023-06-04T14:51:06;3.28;;;2.20;;
20241;SDS011;10279;46.388;8.116;2023-06-04T14:53:34;3.65;;;2.72;;
20241;SDS011;10279;46.388;8.116;2023-06-04T14:56:05;3.30;;;2.15;;
20241;SDS011;10279;46.388;8.116;2023-06-04T14:58:33;3.63;;;2.47;;
20241;SDS011;10279;46.388;8.116;2023-06-04T15:01:00;2.80;;;2.53;;
20241;SDS011;10279;46.388;8.116;2023-06-04T15:03:30;2.20;;;2.00;;
20241;SDS011;10279;46.388;8.116;2023-06-04T15:05:58;2.30;;;1.95;;